sim
Sign-in with your pilot id or email,
or register
Callsign
Passwort

Schedule Details

Flight Number: OEO6711
Departure: Victoria Seychelles International Airport (FSIA) at 04:55
Arrival: Munich Airport (EDDM) at 15:15

Weather Information
Getting current METAR information for FSIA 231300Z 18011KT 140V200 9999 FEW030 27/20 Q1010 NOSIG
Getting current METAR information for EDDM 231350Z 20004KT 9999 FEW015 FEW020TCU SCT043 18/16 Q1009 NOSIG

Schedule Frequency

Route Map